Time;durP1;ratioP1;P1;durP2;ratioP2;P2;SDS_P1;SDS_P2;PMS_P1;PMS_P2;Temp;Humidity;BMP_temperature;BMP_pressure;BME280_temperature;BME280_humidity;BME280_pressure;Samples;Min_cycle;Max_cycle;Signal;HPM_P1;HPM_P2
2023/02/05 00:00:32;;;;;;;20.33;12.18;;;;;;;2.96;64.39;100591.06;6072816;23;20026;-80
2023/02/05 00:02:59;;;;;;;22.13;11.65;;;;;;;2.85;64.18;100569.22;6097282;23;20021;-81
2023/02/05 00:05:25;;;;;;;20.35;10.93;;;;;;;2.66;64.25;100545.44;6048049;23;20089;-80
2023/02/05 00:07:51;;;;;;;23.77;11.73;;;;;;;2.56;63.74;100559.66;6071936;23;20021;-81
2023/02/05 00:10:17;;;;;;;18.45;9.93;;;;;;;2.80;64.13;100604.16;6048794;23;20456;-80
2023/02/05 00:12:43;;;;;;;17.85;10.13;;;;;;;2.66;64.02;100581.44;6073856;23;20029;-80
2023/02/05 00:15:10;;;;;;;20.05;9.90;;;;;;;2.88;63.82;100607.91;6074106;23;20025;-81
2023/02/05 00:17:36;;;;;;;18.02;9.77;;;;;;;2.85;63.90;100633.50;6074866;23;20480;-80
2023/02/05 00:20:04;;;;;;;16.52;9.05;;;;;;;2.90;64.46;100620.78;6075274;23;20112;-84
2023/02/05 00:22:30;;;;;;;16.70;8.80;;;;;;;2.88;64.10;100623.31;6077029;23;20113;-80
2023/02/05 00:24:57;;;;;;;16.63;8.85;;;;;;;2.54;63.72;100566.44;6101840;23;20120;-80
2023/02/05 00:27:24;;;;;;;17.42;8.60;;;;;;;2.51;64.29;100565.47;6100702;23;20105;-81
2023/02/05 00:29:50;;;;;;;15.95;8.98;;;;;;;2.80;63.81;100617.91;6055673;23;20077;-80
2023/02/05 00:32:16;;;;;;;14.85;8.48;;;;;;;2.80;64.15;100627.31;6047744;23;20459;-82
2023/02/05 00:34:42;;;;;;;16.35;8.93;;;;;;;2.57;64.39;100591.34;6070871;23;20014;-80
2023/02/05 00:37:09;;;;;;;16.00;8.65;;;;;;;2.24;63.26;100545.66;6074927;23;20018;-80
2023/02/05 00:39:35;;;;;;;17.08;9.30;;;;;;;2.35;63.74;100566.59;6075027;23;20044;-79
2023/02/05 00:42:01;;;;;;;14.25;8.23;;;;;;;2.35;63.78;100570.03;6074260;23;20094;-80
2023/02/05 00:44:27;;;;;;;15.20;8.68;;;;;;;2.45;63.50;100584.06;6049490;23;20101;-80
2023/02/05 00:46:53;;;;;;;15.02;8.00;;;;;;;2.72;63.57;100632.16;6047525;23;20024;-80
2023/02/05 00:49:19;;;;;;;13.88;7.50;;;;;;;2.73;63.62;100628.78;6071252;23;20061;-82
2023/02/05 00:51:45;;;;;;;14.60;8.15;;;;;;;2.75;63.48;100637.44;6076253;23;20022;-79
2023/02/05 00:54:11;;;;;;;13.25;7.95;;;;;;;2.35;62.82;100585.44;6047321;23;20101;-79
2023/02/05 00:56:37;;;;;;;15.18;8.40;;;;;;;2.36;63.18;100592.31;6047504;23;20097;-80
2023/02/05 00:59:03;;;;;;;13.40;8.43;;;;;;;2.52;63.24;100632.31;6071253;23;20014;-80
2023/02/05 01:01:29;;;;;;;15.52;8.50;;;;;;;2.50;63.96;100618.53;6071666;23;20029;-80
2023/02/05 01:03:55;;;;;;;14.40;8.00;;;;;;;2.34;63.23;100596.53;6047399;23;20022;-81
2023/02/05 01:06:21;;;;;;;14.27;8.20;;;;;;;2.18;63.20;100573.66;6072953;23;20463;-81
2023/02/05 01:08:47;;;;;;;14.10;7.78;;;;;;;2.23;63.45;100585.00;6073255;23;20368;-80
2023/02/05 01:11:15;;;;;;;13.85;8.30;;;;;;;2.24;63.27;100589.31;6102569;23;20460;-80
2023/02/05 01:13:41;;;;;;;14.27;8.13;;;;;;;2.15;63.53;100581.25;6105398;23;20029;-82
2023/02/05 01:16:09;;;;;;;15.23;8.07;;;;;;;2.43;62.97;100644.81;6080741;23;20026;-81
2023/02/05 01:18:35;;;;;;;16.25;8.43;;;;;;;2.33;63.17;100620.47;6031288;23;20025;-79
2023/02/05 01:21:02;;;;;;;12.73;7.35;;;;;;;2.13;63.87;100580.31;6102499;23;20018;-82
2023/02/05 01:23:28;;;;;;;12.90;7.38;;;;;;;2.35;63.54;100612.84;6051668;23;20346;-81
2023/02/05 01:25:54;;;;;;;14.82;7.80;;;;;;;2.09;63.60;100579.31;6052113;23;20063;-78
2023/02/05 01:28:20;;;;;;;13.27;8.10;;;;;;;2.10;63.08;100581.94;6100050;23;20449;-79
2023/02/05 01:30:50;;;;;;;15.35;8.05;;;;;;;2.21;63.32;100617.44;6100312;23;20018;-80
2023/02/05 01:33:17;;;;;;;16.25;8.40;;;;;;;2.46;63.29;100641.50;6100357;23;20014;-81
2023/02/05 01:35:43;;;;;;;13.23;7.50;;;;;;;2.19;63.20;100614.81;6074116;23;20025;-79
2023/02/05 01:38:11;;;;;;;14.40;7.22;;;;;;;1.94;63.03;100592.44;6105161;23;20048;-81
2023/02/05 01:40:37;;;;;;;17.90;8.38;;;;;;;1.52;62.77;100515.53;6054302;23;20018;-79
2023/02/05 01:43:03;;;;;;;14.65;7.72;;;;;;;2.18;63.37;100638.75;6077233;23;20408;-79
2023/02/05 01:46:04;;;;;;;12.65;7.53;;;;;;;2.23;62.90;100652.63;6106942;23;20460;-80
2023/02/05 01:48:41;;;;;;;12.98;7.43;;;;;;;2.10;63.46;100635.88;6052640;23;20068;-78
2023/02/05 01:51:11;;;;;;;14.48;7.88;;;;;;;2.04;62.59;100651.06;6056773;23;20041;-78
2023/02/05 01:53:38;;;;;;;14.98;7.88;;;;;;;2.08;63.75;100665.78;6030183;23;20153;-80
2023/02/05 01:56:13;;;;;;;12.50;7.40;;;;;;;1.66;62.56;100604.19;6074015;23;20093;-79
2023/02/05 01:58:44;;;;;;;15.23;8.07;;;;;;;1.93;63.69;100663.47;6069344;23;20373;-81
2023/02/05 02:01:10;;;;;;;12.57;6.93;;;;;;;1.86;63.45;100655.47;6092446;23;20018;-81
2023/02/05 02:03:39;;;;;;;11.15;6.82;;;;;;;1.99;63.65;100664.53;6071541;23;20033;-80
2023/02/05 02:06:06;;;;;;;14.27;6.97;;;;;;;1.96;63.83;100652.44;6066541;23;20030;-81
2023/02/05 02:08:32;;;;;;;13.38;6.90;;;;;;;2.07;63.47;100665.69;6045526;23;20022;-80
2023/02/05 02:11:01;;;;;;;11.20;6.30;;;;;;;1.98;63.13;100671.34;6065284;23;20014;-81
2023/02/05 02:13:29;;;;;;;13.52;6.93;;;;;;;1.80;63.91;100628.72;6082750;23;20014;-81
2023/02/05 02:15:56;;;;;;;12.10;6.82;;;;;;;1.71;63.24;100618.06;6076096;23;20018;-80
2023/02/05 02:18:25;;;;;;;14.93;7.45;;;;;;;1.98;63.34;100673.91;6098846;23;20582;-80
2023/02/05 02:21:25;;;;;;;12.90;7.00;;;;;;;1.89;63.05;100664.16;6051648;23;20054;-80
2023/02/05 02:24:09;;;;;;;11.98;6.63;;;;;;;1.70;62.95;100677.91;6073882;23;20020;-79
2023/02/05 02:26:58;;;;;;;12.73;7.13;;;;;;;1.77;63.83;100671.34;6098338;23;20073;-80
2023/02/05 02:29:51;;;;;;;14.05;7.00;;;;;;;1.87;63.67;100678.63;6070962;23;20022;-81
2023/02/05 02:32:23;;;;;;;12.18;6.80;;;;;;;1.87;63.33;100681.19;6097404;23;20045;-79
2023/02/05 02:35:06;;;;;;;12.27;6.40;;;;;;;1.79;63.14;100670.59;6093979;23;20452;-80
2023/02/05 02:37:48;;;;;;;10.55;6.38;;;;;;;1.87;63.09;100685.44;6047436;23;20026;-80
2023/02/05 02:40:41;;;;;;;9.98;6.05;;;;;;;1.76;63.81;100655.06;6070763;23;20069;-81
2023/02/05 02:43:27;;;;;;;10.40;6.10;;;;;;;1.98;63.39;100685.88;6059153;23;20464;-78
2023/02/05 02:46:08;;;;;;;9.95;5.63;;;;;;;1.61;63.00;100636.50;6047491;23;20045;-80
2023/02/05 02:48:37;;;;;;;11.10;6.27;;;;;;;1.77;62.40;100661.97;6048464;23;20073;-81
2023/02/05 02:51:07;;;;;;;11.00;5.95;;;;;;;1.64;62.85;100655.44;6096312;23;20029;-80
2023/02/05 02:53:40;;;;;;;11.38;6.03;;;;;;;1.95;62.88;100681.47;6070195;23;20037;-79
2023/02/05 02:56:09;;;;;;;11.25;6.13;;;;;;;1.89;63.05;100677.00;6046767;23;20018;-79
2023/02/05 02:59:07;;;;;;;10.98;6.10;;;;;;;1.86;63.04;100688.84;6023621;23;20018;-79
2023/02/05 03:01:39;;;;;;;11.77;6.60;;;;;;;1.76;62.88;100665.34;6055646;23;20041;-80
2023/02/05 03:04:10;;;;;;;12.15;6.60;;;;;;;1.83;62.78;100661.31;6073821;23;20022;-79
2023/02/05 03:06:42;;;;;;;14.55;7.90;;;;;;;1.99;63.13;100685.94;6048336;23;20058;-80
2023/02/05 03:09:16;;;;;;;12.88;6.97;;;;;;;2.09;63.38;100687.19;6024752;23;20026;-80
2023/02/05 03:11:42;;;;;;;15.18;7.07;;;;;;;1.94;62.69;100654.94;6047850;23;20026;-80
2023/02/05 03:14:09;;;;;;;16.50;7.47;;;;;;;2.12;62.31;100684.72;6070584;23;20018;-79
2023/02/05 03:16:37;;;;;;;13.45;6.97;;;;;;;2.11;62.04;100690.69;6096458;23;20101;-79
2023/02/05 03:19:05;;;;;;;14.52;7.32;;;;;;;1.61;62.44;100618.53;6045292;23;20053;-79
2023/02/05 03:21:42;;;;;;;12.20;6.93;;;;;;;2.06;62.55;100703.34;6046614;23;20018;-80
2023/02/05 03:24:09;;;;;;;14.10;7.43;;;;;;;1.99;62.35;100706.47;6069976;23;20022;-78
2023/02/05 03:26:37;;;;;;;14.27;7.32;;;;;;;1.95;62.13;100712.28;6069897;23;20113;-81
2023/02/05 03:29:17;;;;;;;12.55;6.90;;;;;;;2.00;62.35;100709.91;6047483;23;20025;-80
2023/02/05 03:32:03;;;;;;;11.02;5.95;;;;;;;1.78;62.08;100678.22;6047152;23;20376;-80
2023/02/05 03:34:29;;;;;;;;;;;;;;;2.03;62.37;100712.59;6095771;23;20018;-80
2023/02/05 03:37:23;;;;;;;13.90;7.43;;;;;;;2.04;62.38;100712.69;6046489;23;19933;-79
2023/02/05 03:39:59;;;;;;;13.82;6.88;;;;;;;1.99;61.72;100724.44;6069718;23;20014;-79
2023/02/05 03:42:47;;;;;;;12.05;7.30;;;;;;;2.01;62.19;100721.94;6070209;23;20018;-81
2023/02/05 03:45:32;;;;;;;11.90;6.93;;;;;;;2.07;62.09;100723.06;6097887;23;20105;-79
2023/02/05 03:48:25;;;;;;;12.85;6.72;;;;;;;2.00;61.71;100710.78;6070474;23;20495;-81
2023/02/05 03:50:55;;;;;;;12.15;6.47;;;;;;;2.01;61.94;100717.69;6074921;23;20038;-80
2023/02/05 03:53:34;;;;;;;11.63;6.60;;;;;;;2.06;61.98;100711.06;6072194;23;20069;-81
2023/02/05 03:56:07;;;;;;;13.35;6.90;;;;;;;1.77;61.65;100667.09;6048774;23;20022;-79
2023/02/05 03:58:42;;;;;;;11.80;6.47;;;;;;;1.90;61.63;100689.00;6049907;23;20018;-78
2023/02/05 04:01:10;;;;;;;12.88;7.45;;;;;;;2.07;61.48;100720.50;6046881;23;20053;-79
2023/02/05 04:03:38;;;;;;;13.05;7.43;;;;;;;2.02;61.82;100710.84;6096915;23;20021;-80
2023/02/05 04:06:06;;;;;;;14.38;7.70;;;;;;;1.87;61.83;100690.59;6046838;23;20021;-80
2023/02/05 04:08:32;;;;;;;14.23;7.53;;;;;;;1.91;61.25;100687.31;6024295;23;20508;-79
2023/02/05 04:10:58;;;;;;;11.88;6.88;;;;;;;1.80;61.29;100682.63;6071071;23;20022;-79
2023/02/05 04:13:25;;;;;;;12.10;7.03;;;;;;;2.04;61.57;100722.94;6071875;23;20049;-81
2023/02/05 04:15:51;;;;;;;12.70;7.53;;;;;;;1.79;61.49;100691.13;6073473;23;20456;-80
2023/02/05 04:18:18;;;;;;;13.13;7.63;;;;;;;2.00;61.23;100728.78;6082289;23;20014;-80
2023/02/05 04:20:45;;;;;;;13.98;8.50;;;;;;;1.94;61.65;100715.66;6049375;23;20022;-80
2023/02/05 04:23:14;;;;;;;14.27;7.43;;;;;;;2.01;61.77;100732.19;6073750;23;20022;-81
2023/02/05 04:25:42;;;;;;;9.25;6.45;;;;;;;1.99;61.55;100734.72;6050862;23;20034;-82
2023/02/05 04:28:11;;;;;;;11.93;6.78;;;;;;;1.99;61.63;100729.56;6050321;23;20022;-80
2023/02/05 04:30:38;;;;;;;14.73;7.90;;;;;;;1.96;61.27;100744.84;6072645;23;20273;-81
2023/02/05 04:33:06;;;;;;;14.00;7.80;;;;;;;1.90;61.58;100724.06;6072116;23;20018;-79
2023/02/05 04:35:32;;;;;;;14.27;7.85;;;;;;;1.70;61.69;100698.44;6047550;23;20081;-78
2023/02/05 04:38:00;;;;;;;13.85;7.68;;;;;;;1.87;61.29;100735.09;6072054;23;20105;-80
2023/02/05 04:40:26;;;;;;;14.55;7.32;;;;;;;1.91;61.86;100752.38;6048170;23;20022;-81
2023/02/05 04:42:53;;;;;;;15.73;7.68;;;;;;;1.91;61.62;100754.94;6096979;23;20014;-79
2023/02/05 04:45:19;;;;;;;14.02;8.05;;;;;;;1.76;61.07;100726.06;6072768;23;20081;-79
2023/02/05 04:47:45;;;;;;;14.38;8.02;;;;;;;1.89;61.76;100746.28;6096787;23;20463;-81
2023/02/05 04:50:11;;;;;;;12.88;7.20;;;;;;;1.77;60.55;100754.34;6046532;23;20452;-80
2023/02/05 04:52:37;;;;;;;12.55;7.68;;;;;;;1.77;61.62;100756.03;6072607;23;20101;-80
2023/02/05 04:55:03;;;;;;;14.18;7.53;;;;;;;1.65;61.79;100734.19;6073030;23;20014;-80
2023/02/05 04:57:30;;;;;;;14.60;7.70;;;;;;;1.80;61.72;100769.91;6072026;23;20025;-79
2023/02/05 04:59:56;;;;;;;14.48;7.97;;;;;;;1.80;61.30;100763.88;6100483;23;20384;-78
2023/02/05 05:02:23;;;;;;;17.00;7.90;;;;;;;1.79;61.60;100757.88;6097286;23;20152;-78
2023/02/05 05:04:49;;;;;;;18.50;8.95;;;;;;;1.86;61.59;100756.44;6070841;23;20014;-79
2023/02/05 05:07:15;;;;;;;15.65;8.18;;;;;;;1.96;62.06;100775.66;6070785;23;20114;-78
2023/02/05 05:09:42;;;;;;;17.38;8.75;;;;;;;1.81;61.72;100747.66;6046896;23;20425;-78
2023/02/05 05:12:08;;;;;;;24.88;12.35;;;;;;;1.88;61.52;100787.28;6069290;23;20018;-80
2023/02/05 05:14:36;;;;;;;22.95;12.07;;;;;;;1.71;61.95;100753.22;6070773;23;20397;-78
2023/02/05 05:17:03;;;;;;;23.75;12.00;;;;;;;1.81;61.81;100765.63;6070103;23;20049;-79
2023/02/05 05:19:29;;;;;;;21.85;11.15;;;;;;;1.85;61.73;100779.47;6071343;23;20061;-80
2023/02/05 05:21:55;;;;;;;19.95;9.88;;;;;;;1.46;61.17;100739.34;6071798;23;20074;-79
2023/02/05 05:24:21;;;;;;;15.25;8.88;;;;;;;1.53;61.93;100763.56;6095574;23;20480;-79
2023/02/05 05:26:47;;;;;;;18.17;9.13;;;;;;;1.70;62.04;100795.97;6070173;23;20022;-80
2023/02/05 05:29:13;;;;;;;15.68;8.90;;;;;;;1.64;61.40;100808.56;6023041;23;20097;-80
2023/02/05 05:31:40;;;;;;;16.58;8.18;;;;;;;1.64;61.69;100798.28;6071767;23;20421;-82
2023/02/05 05:34:06;;;;;;;17.63;8.93;;;;;;;1.57;62.35;100784.28;6054672;23;20020;-80
2023/02/05 05:36:32;;;;;;;13.48;7.63;;;;;;;1.72;62.22;100798.63;6070164;23;20102;-79
2023/02/05 05:44:35;;;;;;;14.15;8.35;;;;;;;1.55;62.13;100792.75;6072084;23;20078;-79
2023/02/05 05:47:01;;;;;;;15.18;8.75;;;;;;;0.91;62.16;100682.25;6070853;23;20020;-81
2023/02/05 05:49:27;;;;;;;15.75;9.07;;;;;;;1.76;62.82;100821.91;6049598;23;20029;-80
2023/02/05 05:51:54;;;;;;;13.88;8.65;;;;;;;1.55;62.71;100785.91;6048521;23;20460;-80
2023/02/05 05:54:23;;;;;;;15.40;9.02;;;;;;;1.12;62.69;100713.09;6099406;23;20551;-81
2023/02/05 05:56:52;;;;;;;83.47;36.65;;;;;;;1.72;63.15;100832.84;6072825;23;20015;-79
2023/02/05 05:59:26;;;;;;;16.55;9.27;;;;;;;0.55;62.75;100639.69;6106345;23;20073;-80
2023/02/05 06:01:54;;;;;;;16.33;8.20;;;;;;;0.55;62.72;100639.69;6110078;23;20020;-81
2023/02/05 06:04:36;;;;;;;17.45;9.45;;;;;;;1.63;63.25;100835.88;6079132;23;20045;-78
2023/02/05 06:07:05;;;;;;;13.57;8.27;;;;;;;0.58;63.01;100638.97;6048239;23;20503;-80
2023/02/05 06:10:04;;;;;;;12.07;7.50;;;;;;;1.01;63.57;100711.75;6072998;23;20026;-81
2023/02/05 06:12:36;;;;;;;12.82;7.47;;;;;;;1.38;63.24;100780.06;6069342;23;20014;-82
2023/02/05 06:15:02;;;;;;;12.63;6.97;;;;;;;1.52;63.36;100783.22;6072036;23;20010;-80
2023/02/05 06:17:30;;;;;;;10.50;6.53;;;;;;;1.69;63.22;100799.34;6026856;23;20364;-79
2023/02/05 06:20:01;;;;;;;13.23;7.15;;;;;;;1.88;63.20;100830.94;6074205;23;20125;-81
2023/02/05 06:22:33;;;;;;;12.20;7.25;;;;;;;1.94;63.20;100823.50;6099647;23;20018;-79
2023/02/05 06:25:05;;;;;;;12.77;6.75;;;;;;;1.71;63.44;100796.84;6049872;23;20022;-79
2023/02/05 06:27:32;;;;;;;12.75;6.45;;;;;;;1.96;63.28;100857.81;6098936;23;20349;-79
2023/02/05 06:30:01;;;;;;;11.77;6.60;;;;;;;1.44;63.07;100749.53;6049155;23;20030;-80
2023/02/05 06:32:28;;;;;;;10.13;6.20;;;;;;;1.98;63.09;100843.34;6070911;23;20049;-82
2023/02/05 06:35:12;;;;;;;12.35;6.88;;;;;;;1.19;63.32;100738.22;6095991;23;20032;-79
2023/02/05 06:37:41;;;;;;;10.88;5.95;;;;;;;1.19;63.32;100727.97;6045523;23;20029;-79
2023/02/05 06:40:09;;;;;;;10.60;6.57;;;;;;;1.89;63.12;100851.53;6024328;23;20085;-81
2023/02/05 06:42:35;;;;;;;11.80;6.40;;;;;;;1.57;63.35;100791.13;6071412;23;20070;-82
2023/02/05 06:45:04;;;;;;;16.08;9.57;;;;;;;1.87;63.20;100826.63;6047430;23;20023;-80
2023/02/05 06:47:30;;;;;;;11.68;7.07;;;;;;;1.98;62.92;100839.94;6099068;23;20037;-80
2023/02/05 06:49:56;;;;;;;12.75;7.90;;;;;;;1.91;62.90;100843.91;6084054;23;20041;-79
2023/02/05 06:52:22;;;;;;;15.13;7.43;;;;;;;2.07;63.09;100854.03;6027434;23;20022;-81
2023/02/05 06:54:48;;;;;;;13.52;7.60;;;;;;;2.23;63.10;100857.25;6075010;23;20036;-81
2023/02/05 06:57:14;;;;;;;11.32;6.75;;;;;;;2.27;62.78;100859.13;6048796;23;20022;-81
2023/02/05 06:59:40;;;;;;;15.63;7.45;;;;;;;1.98;62.98;100798.84;6074481;23;20022;-81
2023/02/05 07:02:08;;;;;;;14.23;6.93;;;;;;;2.17;63.02;100827.06;6048800;23;20019;-82
2023/02/05 07:05:25;;;;;;;13.30;7.10;;;;;;;2.43;62.94;100849.47;6102577;23;20027;-82
2023/02/05 07:07:54;;;;;;;11.00;6.30;;;;;;;1.75;62.81;100732.88;6099379;23;20038;-81
2023/02/05 07:10:42;;;;;;;14.93;7.13;;;;;;;2.82;63.11;100857.94;6105774;23;20045;-81
2023/02/05 07:13:11;;;;;;;13.00;7.07;;;;;;;2.60;63.01;100802.22;6076656;23;20452;-77
2023/02/05 07:15:40;;;;;;;19.20;9.13;;;;;;;2.40;62.55;100722.66;6048331;23;20033;-79
2023/02/05 07:18:09;;;;;;;13.50;7.60;;;;;;;3.05;62.24;100796.22;6075601;23;20125;-81
2023/02/05 07:20:45;;;;;;;12.82;7.20;;;;;;;3.17;62.13;100795.81;6029913;23;20033;-81
2023/02/05 07:23:11;;;;;;;17.38;9.65;;;;;;;3.43;61.85;100817.34;6100742;23;20091;-80
2023/02/05 07:25:39;;;;;;;12.35;6.95;;;;;;;3.63;61.64;100806.88;6075614;23;20022;-80
2023/02/05 07:28:07;;;;;;;13.63;6.32;;;;;;;3.27;61.18;100733.56;6100125;23;20050;-82
2023/02/05 07:30:37;;;;;;;10.95;6.30;;;;;;;3.55;60.43;100761.97;6028134;23;20025;-83
2023/02/05 07:33:18;;;;;;;10.93;6.43;;;;;;;3.64;60.84;100746.00;6030602;23;20022;-80
2023/02/05 07:35:44;;;;;;;10.90;6.60;;;;;;;4.50;59.91;100836.47;6049612;23;20085;-81
2023/02/05 07:38:28;;;;;;;9.70;5.75;;;;;;;4.48;59.71;100771.09;6024293;23;20461;-81
2023/02/05 07:41:01;;;;;;;9.07;5.68;;;;;;;5.06;59.00;100817.53;6099733;23;20022;-81
2023/02/05 07:43:28;;;;;;;8.82;5.60;;;;;;;4.87;58.00;100771.38;6051136;23;20050;-82
2023/02/05 07:46:00;;;;;;;12.60;6.13;;;;;;;4.25;57.57;100697.31;6030444;23;20049;-82
2023/02/05 07:48:44;;;;;;;11.07;6.00;;;;;;;4.36;56.87;100750.06;6076591;23;20014;-83
2023/02/05 07:51:24;;;;;;;11.30;6.70;;;;;;;5.00;57.23;100873.22;6028141;23;20104;-79
2023/02/05 07:54:09;;;;;;;10.65;5.68;;;;;;;4.66;56.72;100842.97;6050122;23;20048;-82
2023/02/05 07:56:43;;;;;;;12.25;6.18;;;;;;;4.24;56.06;100798.63;6078717;23;20024;-84
2023/02/05 07:59:13;;;;;;;23.38;13.20;;;;;;;3.38;56.60;100685.06;6055881;23;20130;-83
2023/02/05 08:01:39;;;;;;;24.17;12.15;;;;;;;3.59;56.09;100723.53;6053139;23;20022;-84
2023/02/05 08:04:08;;;;;;;11.35;6.57;;;;;;;4.49;55.96;100894.00;6105126;23;20097;-84
2023/02/05 08:06:58;;;;;;;12.77;6.78;;;;;;;3.46;55.50;100741.94;6060630;23;20026;-81
2023/02/05 08:09:25;;;;;;;13.00;7.40;;;;;;;4.41;55.72;100941.81;6053565;23;20456;-80
2023/02/05 08:12:05;;;;;;;11.05;6.85;;;;;;;3.67;55.33;100818.16;6099606;23;20018;-81
2023/02/05 08:14:37;;;;;;;13.65;6.70;;;;;;;3.24;55.24;100764.31;6084706;23;20337;-79
2023/02/05 08:18:15;;;;;;;13.18;7.10;;;;;;;3.19;55.19;100776.16;6073471;23;20025;-79
2023/02/05 08:20:38;;;;;;;16.73;8.65;;;;;;;3.16;54.95;100817.22;6074463;23;20049;-80
2023/02/05 08:23:06;;;;;;;13.20;7.57;;;;;;;3.09;55.43;100792.06;6078443;23;20524;-81
2023/02/05 08:26:23;;;;;;;10.50;6.47;;;;;;;3.81;55.34;100924.22;6077942;23;20069;-80
2023/02/05 08:29:09;;;;;;;13.57;7.00;;;;;;;2.61;55.43;100728.56;6053199;23;20390;-81
2023/02/05 08:31:46;;;;;;;13.82;6.40;;;;;;;3.09;55.12;100816.06;6057705;23;20085;-81
2023/02/05 08:38:39;;;;;;;11.57;6.72;;;;;;;2.34;55.24;100701.84;6042655;23;20082;-80
2023/02/05 08:41:45;;;;;;;11.98;5.95;;;;;;;3.71;55.13;100934.19;6012720;23;20055;-80
2023/02/05 08:44:21;;;;;;;10.02;5.63;;;;;;;3.70;54.96;100932.44;6020244;23;20018;-83
2023/02/05 08:46:50;;;;;;;18.38;9.73;;;;;;;3.76;54.96;100927.50;6057293;23;20089;-80
2023/02/05 08:49:16;;;;;;;12.38;7.30;;;;;;;3.65;54.95;100897.94;6048330;23;20322;-79
2023/02/05 08:51:50;;;;;;;11.38;6.47;;;;;;;3.62;54.95;100892.66;6046271;23;20019;-81
2023/02/05 08:55:01;;;;;;;11.57;6.20;;;;;;;3.81;54.66;100935.41;6070943;23;20019;-81
2023/02/05 08:57:58;;;;;;;9.40;5.63;;;;;;;2.50;54.53;100723.03;6056776;23;20303;-82
2023/02/05 09:00:29;;;;;;;23.67;8.13;;;;;;;3.78;54.85;100914.69;6163376;23;20020;-81
2023/02/05 09:02:55;;;;;;;10.68;5.97;;;;;;;3.80;54.19;100917.31;6161463;23;20104;-81
2023/02/05 09:05:21;;;;;;;12.40;6.38;;;;;;;3.76;53.98;100896.59;6160493;23;20017;-80
2023/02/05 09:07:59;;;;;;;11.57;6.40;;;;;;;4.02;54.04;100914.69;6160301;23;20025;-80
2023/02/05 09:10:25;;;;;;;13.68;7.15;;;;;;;3.80;54.00;100873.53;6185564;23;20044;-82
2023/02/05 09:12:59;;;;;;;10.88;6.60;;;;;;;4.03;54.02;100911.31;6163410;23;20095;-80
2023/02/05 09:15:31;;;;;;;11.32;6.03;;;;;;;4.11;53.52;100898.69;6136784;23;20051;-81
2023/02/05 09:18:26;;;;;;;10.98;6.07;;;;;;;4.31;53.44;100935.47;6191086;23;20017;-82
2023/02/05 09:21:53;;;;;;;;;;;;;;;;;;;;;
2023/02/05 09:25:32;;;;;;;9.70;6.35;;;;;;;4.69;52.71;100924.72;6128258;23;20070;-83
2023/02/05 09:27:59;;;;;;;13.85;6.93;;;;;;;4.53;52.84;100888.09;6127928;23;20021;-81
2023/02/05 09:30:25;;;;;;;29.55;12.57;;;;;;;4.88;53.33;100931.31;6106344;23;20043;-81
2023/02/05 09:32:51;;;;;;;34.92;14.93;;;;;;;4.43;52.67;100847.38;6089017;23;20502;-80
2023/02/05 09:35:17;;;;;;;14.45;7.30;;;;;;;4.87;53.02;100913.25;6115194;23;20014;-79
2023/02/05 09:37:44;;;;;;;14.00;6.60;;;;;;;4.75;52.19;100899.09;6135804;23;20116;-80
2023/02/05 09:41:03;;;;;;;18.05;9.10;;;;;;;4.88;52.65;100915.00;6129753;23;20477;-81
2023/02/05 09:43:50;;;;;;;10.60;6.43;;;;;;;4.32;51.80;100843.56;6111977;23;20100;-80
2023/02/05 09:46:38;;;;;;;13.88;7.82;;;;;;;4.80;52.00;100933.66;6081723;23;20142;-80
2023/02/05 09:49:20;;;;;;;16.83;7.70;;;;;;;4.49;52.05;100862.16;6087156;23;20029;-82
2023/02/05 09:51:52;;;;;;;11.65;6.70;;;;;;;4.82;51.70;100937.16;6129036;23;20018;-81
2023/02/05 09:54:31;;;;;;;24.60;11.98;;;;;;;4.56;51.69;100907.06;6102358;23;20014;-81
2023/02/05 09:57:03;;;;;;;14.55;7.63;;;;;;;4.79;51.63;100938.78;6099912;23;20455;-81
2023/02/05 09:59:32;;;;;;;13.40;7.18;;;;;;;4.81;51.50;100930.25;6075264;23;20061;-81
2023/02/05 10:02:00;;;;;;;19.77;9.93;;;;;;;5.08;52.29;100929.41;6124306;23;20021;-83
2023/02/05 10:04:27;;;;;;;106.00;46.92;;;;;;;5.19;51.29;100905.63;6075980;23;20091;-79
2023/02/05 10:07:07;;;;;;;14.48;8.23;;;;;;;5.54;51.39;100932.50;6073856;23;20475;-80
2023/02/05 10:09:58;;;;;;;15.05;7.95;;;;;;;5.69;51.24;100936.41;6097691;23;20545;-80
2023/02/05 10:12:56;;;;;;;11.40;7.15;;;;;;;5.68;50.58;100927.75;6074151;23;20471;-80
2023/02/05 10:15:55;;;;;;;14.85;7.40;;;;;;;5.51;50.17;100914.38;6073932;23;20053;-79
2023/02/05 10:18:33;;;;;;;13.25;6.57;;;;;;;5.51;50.86;100944.47;6073606;23;20017;-80
2023/02/05 10:21:26;;;;;;;22.90;11.57;;;;;;;5.51;50.30;100929.84;6098578;23;20071;-80
2023/02/05 10:24:06;;;;;;;19.23;9.83;;;;;;;5.55;50.44;100935.97;6103506;23;20091;-81
2023/02/05 10:26:43;;;;;;;;;;;;;;;5.71;50.33;100932.16;6134050;23;20025;-80
2023/02/05 10:29:09;;;;;;;13.85;7.50;;;;;;;5.96;50.59;100928.53;6182879;23;19934;-82
2023/02/05 10:32:06;;;;;;;11.90;7.25;;;;;;;6.26;50.08;100929.38;6158480;23;20354;-78
2023/02/05 10:35:10;;;;;;;10.73;7.07;;;;;;;6.49;50.28;100922.25;6135016;23;20072;-81
2023/02/05 10:37:49;;;;;;;10.27;6.53;;;;;;;6.50;48.21;100930.84;6165583;23;20039;-80
2023/02/05 10:40:20;;;;;;;16.33;7.80;;;;;;;6.44;49.58;100926.41;6160313;23;20318;-79
2023/02/05 10:43:04;;;;;;;13.23;7.47;;;;;;;5.99;49.16;100858.88;6140192;23;20017;-82
2023/02/05 10:45:53;;;;;;;11.07;6.80;;;;;;;6.35;48.98;100931.31;6141029;23;20017;-81
2023/02/05 10:48:39;;;;;;;15.88;8.40;;;;;;;6.32;48.80;100933.00;6157828;23;20024;-81
2023/02/05 10:51:16;;;;;;;12.98;7.90;;;;;;;5.81;48.38;100855.78;6164507;23;20087;-80
2023/02/05 10:53:56;;;;;;;14.05;8.07;;;;;;;5.54;49.05;100811.16;6110250;23;20024;-81
2023/02/05 10:56:24;;;;;;;13.98;8.00;;;;;;;6.23;47.99;100916.38;6158291;23;20028;-81
2023/02/05 10:59:04;;;;;;;15.57;7.88;;;;;;;5.69;48.22;100838.25;6156955;23;20029;-79
2023/02/05 11:01:36;;;;;;;11.18;7.22;;;;;;;5.17;48.04;100747.31;6160459;23;20027;-79
2023/02/05 11:04:18;;;;;;;12.63;7.22;;;;;;;5.93;47.46;100884.53;6133606;23;20024;-82
2023/02/05 11:06:54;;;;;;;12.13;7.60;;;;;;;5.81;47.57;100892.81;6184554;23;20017;-79
2023/02/05 11:09:26;;;;;;;19.55;10.13;;;;;;;6.09;48.01;100921.16;6186451;23;20017;-81
2023/02/05 11:12:04;;;;;;;;;;;;;;;6.30;48.16;100926.91;6161881;23;20028;-81
2023/02/05 11:14:44;;;;;;;12.70;7.05;;;;;;;5.22;47.88;100744.03;6117669;23;19963;-80
2023/02/05 11:17:40;;;;;;;13.45;7.45;;;;;;;5.39;47.66;100746.19;6164524;23;20524;-81
2023/02/05 11:20:33;;;;;;;13.82;7.05;;;;;;;6.47;47.40;100921.31;6141583;23;20024;-80
2023/02/05 11:23:38;;;;;;;9.27;5.93;;;;;;;4.97;47.41;100722.69;6120488;23;20016;-81
2023/02/05 11:27:00;;;;;;;9.23;6.03;;;;;;;4.95;47.35;100752.72;6133718;23;20021;-81
2023/02/05 11:30:30;;;;;;;8.70;5.13;;;;;;;5.51;45.84;100898.88;6101017;23;20021;-82
2023/02/05 11:33:45;;;;;;;8.25;5.13;;;;;;;5.66;47.76;100934.56;6142084;23;20028;-79
2023/02/05 11:37:19;;;;;;;8.73;4.90;;;;;;;4.88;47.52;100860.81;6095461;23;20021;-80
2023/02/05 11:39:57;;;;;;;8.40;4.93;;;;;;;4.75;47.35;100863.00;6166601;23;20035;-79
2023/02/05 11:42:25;;;;;;;10.75;5.63;;;;;;;5.05;47.70;100931.03;6163742;23;20028;-80
2023/02/05 11:45:02;;;;;;;10.07;5.47;;;;;;;4.96;47.76;100947.09;6139837;23;20398;-79
2023/02/05 11:47:42;;;;;;;11.90;6.30;;;;;;;4.34;47.60;100891.78;6143533;23;20076;-79
2023/02/05 11:50:27;;;;;;;10.50;5.70;;;;;;;4.34;47.92;100911.50;6201890;23;20023;-81
2023/02/05 11:56:13;;;;;;;10.50;5.25;;;;;;;3.43;47.95;100804.47;6167379;23;20455;-81
2023/02/05 11:58:45;;;;;;;8.82;5.35;;;;;;;3.83;48.47;100886.53;6173841;23;20103;-80
2023/02/05 12:02:16;;;;;;;7.35;4.90;;;;;;;4.04;47.77;100953.41;6146668;23;20021;-81
2023/02/05 12:04:48;;;;;;;8.35;4.50;;;;;;;3.42;47.71;100904.78;6163041;23;20013;-80
2023/02/05 12:07:32;;;;;;;;;;;;;;;3.80;48.08;100948.22;6174751;23;20017;-82
2023/02/05 12:10:12;;;;;;;7.60;4.20;;;;;;;3.21;48.45;100873.97;6207009;23;19912;-80
2023/02/05 12:16:07;;;;;;;7.40;4.45;;;;;;;3.35;49.04;100890.78;6182070;23;20048;-80
2023/02/05 12:19:06;;;;;;;7.13;4.25;;;;;;;3.53;48.93;100903.50;6140710;23;20017;-79